Time;durP1;ratioP1;P1;durP2;ratioP2;P2;SDS_P1;SDS_P2;PMS_P1;PMS_P2;Temp;Humidity;BMP_temperature;BMP_pressure;BME280_temperature;BME280_humidity;BME280_pressure;Samples;Min_cycle;Max_cycle;Signal;HPM_P1;HPM_P2
2023/09/11 00:01:23;;;;;;;6.18;5.38;;;18.10;70.30;;;;;;5011908;28;20029;-56
2023/09/11 00:03:50;;;;;;;6.53;5.53;;;18.10;70.50;;;;;;5011772;28;20084;-55
2023/09/11 00:06:15;;;;;;;7.90;6.85;;;18.10;70.50;;;;;;4994320;28;20030;-55
2023/09/11 00:08:41;;;;;;;8.43;6.47;;;18.10;70.50;;;;;;5011047;28;20080;-57
2023/09/11 00:11:07;;;;;;;9.32;6.88;;;18.10;70.50;;;;;;4992289;28;20053;-56
2023/09/11 00:13:33;;;;;;;8.73;6.75;;;18.10;70.50;;;;;;4992008;28;20029;-56
2023/09/11 00:15:58;;;;;;;7.13;6.43;;;18.10;71.20;;;;;;4992126;28;20042;-56
2023/09/11 00:18:24;;;;;;;9.07;6.68;;;18.10;70.60;;;;;;4992072;28;20030;-55
2023/09/11 00:20:50;;;;;;;9.50;7.38;;;18.10;71.20;;;;;;4991912;28;20505;-56
2023/09/11 00:23:16;;;;;;;9.32;7.40;;;18.10;70.50;;;;;;4992304;28;20499;-56
2023/09/11 00:25:41;;;;;;;10.77;7.85;;;18.10;70.60;;;;;;4991909;28;20110;-56
2023/09/11 00:28:07;;;;;;;9.43;7.22;;;18.00;70.70;;;;;;4992050;28;20030;-56
2023/09/11 00:30:34;;;;;;;8.50;7.47;;;18.00;70.50;;;;;;4991982;28;20027;-56
2023/09/11 00:33:00;;;;;;;7.63;6.82;;;18.00;70.70;;;;;;4995033;28;20498;-55
2023/09/11 00:35:25;;;;;;;8.85;7.95;;;18.00;70.60;;;;;;4995769;28;20038;-56
2023/09/11 00:37:51;;;;;;;10.23;8.07;;;18.00;70.70;;;;;;4995562;28;20030;-54
2023/09/11 00:40:17;;;;;;;11.27;7.70;;;18.00;70.80;;;;;;4995680;28;20022;-56
2023/09/11 00:42:42;;;;;;;11.50;7.43;;;18.00;70.80;;;;;;4995611;28;20019;-56
2023/09/11 00:45:08;;;;;;;8.65;7.35;;;17.90;70.80;;;;;;4995501;28;20081;-56
2023/09/11 00:47:34;;;;;;;9.05;7.18;;;17.90;70.80;;;;;;4995696;28;20041;-56
2023/09/11 00:50:00;;;;;;;7.95;6.97;;;17.90;71.00;;;;;;4995365;28;20034;-56
2023/09/11 00:52:27;;;;;;;10.23;7.80;;;17.90;71.00;;;;;;4995231;28;20554;-57
2023/09/11 00:54:54;;;;;;;8.00;6.85;;;17.80;71.00;;;;;;5017911;28;20493;-55
2023/09/11 00:57:21;;;;;;;7.95;7.15;;;17.80;71.10;;;;;;5035316;28;20025;-56
2023/09/11 00:59:50;;;;;;;9.85;7.43;;;17.80;71.10;;;;;;5017130;28;20034;-55
2023/09/11 01:02:16;;;;;;;8.30;7.03;;;17.80;71.00;;;;;;5034479;28;20026;-56
2023/09/11 01:04:43;;;;;;;7.65;6.85;;;17.80;71.10;;;;;;5034592;28;20029;-56
2023/09/11 01:07:10;;;;;;;7.75;6.25;;;17.80;71.20;;;;;;5034540;28;20117;-56
2023/09/11 01:09:36;;;;;;;8.73;6.80;;;17.70;71.20;;;;;;5034439;28;20045;-54
2023/09/11 01:12:02;;;;;;;9.60;6.85;;;17.70;71.20;;;;;;5034455;28;20025;-55
2023/09/11 01:14:28;;;;;;;7.82;6.78;;;17.70;71.30;;;;;;5034674;28;20068;-56
2023/09/11 01:17:24;;;;;;;9.43;6.55;;;17.70;71.40;;;;;;5034135;28;20528;-56
2023/09/11 01:20:05;;;;;;;7.15;6.20;;;17.60;71.30;;;;;;4997698;28;20040;-56
2023/09/11 01:22:43;;;;;;;8.00;6.18;;;17.50;71.20;;;;;;5034493;28;20088;-56
2023/09/11 01:25:11;;;;;;;7.57;6.22;;;17.50;71.20;;;;;;5034030;28;20393;-56
2023/09/11 01:28:00;;;;;;;8.05;6.68;;;17.50;71.30;;;;;;5034123;28;20511;-56
2023/09/11 01:30:26;;;;;;;6.45;5.68;;;17.50;71.40;;;;;;5034336;28;20544;-57
2023/09/11 01:32:53;;;;;;;7.20;5.75;;;17.50;71.30;;;;;;5033995;28;20067;-57
2023/09/11 01:35:20;;;;;;;7.85;6.03;;;17.50;71.40;;;;;;5033887;28;20064;-56
2023/09/11 01:37:46;;;;;;;7.70;6.00;;;17.40;71.10;;;;;;5033976;28;20018;-57
2023/09/11 01:40:11;;;;;;;6.90;5.82;;;17.40;71.10;;;;;;5034599;28;20032;-57
2023/09/11 01:42:44;;;;;;;7.45;5.53;;;17.40;71.10;;;;;;5033829;28;20381;-56
2023/09/11 01:45:14;;;;;;;8.55;5.95;;;17.40;71.30;;;;;;5033891;28;20377;-57
2023/09/11 01:47:45;;;;;;;8.10;6.55;;;17.40;71.30;;;;;;5033933;28;20428;-56
2023/09/11 01:50:15;;;;;;;8.15;6.65;;;17.40;71.40;;;;;;5034134;28;20029;-57
2023/09/11 01:52:42;;;;;;;8.07;6.63;;;17.40;71.30;;;;;;5034010;28;20026;-57
2023/09/11 01:55:08;;;;;;;8.10;6.47;;;17.30;71.40;;;;;;5033385;28;20275;-56
2023/09/11 01:57:34;;;;;;;8.68;6.78;;;17.30;71.50;;;;;;5033693;28;20092;-57
2023/09/11 02:00:00;;;;;;;8.80;7.68;;;17.30;71.60;;;;;;5033435;28;20030;-56
2023/09/11 02:02:25;;;;;;;10.07;7.53;;;17.30;71.60;;;;;;5033572;28;20061;-56
2023/09/11 02:04:52;;;;;;;8.45;7.15;;;17.30;71.70;;;;;;5033642;28;20036;-56
2023/09/11 02:07:17;;;;;;;9.10;7.50;;;17.20;71.60;;;;;;5033392;28;20034;-55
2023/09/11 02:09:43;;;;;;;9.65;7.50;;;17.20;71.70;;;;;;5033465;28;20091;-56
2023/09/11 02:12:09;;;;;;;9.25;7.90;;;17.10;71.80;;;;;;5033563;28;20117;-55
2023/09/11 02:14:34;;;;;;;8.82;7.60;;;17.10;72.00;;;;;;5033290;28;20026;-55
2023/09/11 02:17:02;;;;;;;10.32;7.95;;;17.10;71.90;;;;;;5033196;28;20071;-55
2023/09/11 02:19:29;;;;;;;9.70;7.18;;;17.00;72.00;;;;;;5033337;28;20038;-56
2023/09/11 02:21:55;;;;;;;9.68;7.82;;;17.00;72.10;;;;;;5033287;28;20029;-56
2023/09/11 02:24:20;;;;;;;8.77;7.53;;;16.90;72.20;;;;;;5033094;28;20029;-56
2023/09/11 02:26:46;;;;;;;8.60;7.35;;;16.90;72.30;;;;;;5032925;28;20084;-56
2023/09/11 02:29:12;;;;;;;7.90;6.60;;;16.90;72.50;;;;;;5032734;28;20029;-56
2023/09/11 02:31:37;;;;;;;8.48;6.93;;;16.90;72.60;;;;;;5032744;28;20032;-53
2023/09/11 02:34:03;;;;;;;9.57;6.30;;;16.80;72.80;;;;;;5032227;28;20030;-56
2023/09/11 02:36:28;;;;;;;8.65;6.78;;;16.80;73.00;;;;;;5032578;28;20473;-56
2023/09/11 02:38:54;;;;;;;7.85;6.40;;;16.80;73.10;;;;;;5032805;28;20175;-56
2023/09/11 02:41:20;;;;;;;7.90;6.60;;;16.80;73.10;;;;;;5032968;28;20063;-57
2023/09/11 02:43:45;;;;;;;7.22;6.45;;;16.80;73.00;;;;;;5032699;28;20063;-56
2023/09/11 02:46:11;;;;;;;8.07;6.93;;;16.80;73.00;;;;;;5032669;28;20080;-56
2023/09/11 02:48:43;;;;;;;8.48;6.95;;;16.80;73.20;;;;;;5032719;28;20081;-57
2023/09/11 02:51:09;;;;;;;7.95;6.97;;;16.80;72.90;;;;;;5032620;28;20029;-56
2023/09/11 02:53:34;;;;;;;9.30;7.00;;;16.70;73.20;;;;;;5032469;28;20390;-57
2023/09/11 02:56:00;;;;;;;7.28;6.22;;;16.70;73.00;;;;;;5031994;28;20029;-56
2023/09/11 02:58:25;;;;;;;7.60;6.20;;;16.70;73.10;;;;;;5032419;28;20114;-55
2023/09/11 03:00:51;;;;;;;10.02;6.70;;;16.70;73.20;;;;;;5032242;28;20495;-56
2023/09/11 03:03:17;;;;;;;7.05;6.32;;;16.70;73.20;;;;;;5032197;28;20029;-56
2023/09/11 03:05:42;;;;;;;7.88;6.60;;;16.70;73.30;;;;;;5032208;28;20390;-57
2023/09/11 03:08:08;;;;;;;8.00;6.93;;;16.70;73.50;;;;;;5032510;28;20048;-56
2023/09/11 03:10:33;;;;;;;8.80;6.65;;;16.60;74.10;;;;;;5032357;28;20482;-56
2023/09/11 03:12:59;;;;;;;9.00;6.68;;;16.60;73.60;;;;;;5032176;28;20033;-56
2023/09/11 03:15:29;;;;;;;7.72;5.80;;;16.60;73.70;;;;;;5032317;28;20025;-56
2023/09/11 03:17:54;;;;;;;8.45;7.20;;;16.60;73.90;;;;;;5032440;28;20029;-57
2023/09/11 03:20:20;;;;;;;9.35;6.35;;;16.60;74.20;;;;;;5032015;28;20543;-55
2023/09/11 03:22:45;;;;;;;10.20;7.22;;;16.60;74.60;;;;;;5032244;28;20458;-56
2023/09/11 03:25:11;;;;;;;10.25;8.43;;;16.50;74.90;;;;;;5032232;28;20030;-56
2023/09/11 03:27:38;;;;;;;8.20;7.05;;;16.60;75.30;;;;;;5031928;28;20104;-56
2023/09/11 03:30:04;;;;;;;11.35;8.68;;;16.60;75.70;;;;;;5032021;28;20033;-56
2023/09/11 03:32:30;;;;;;;9.02;7.75;;;16.60;75.80;;;;;;5031729;28;20013;-56
2023/09/11 03:34:55;;;;;;;8.68;7.60;;;16.60;75.90;;;;;;5031893;28;20030;-56
2023/09/11 03:37:22;;;;;;;10.40;8.10;;;16.70;76.10;;;;;;5032022;28;20503;-54
2023/09/11 03:39:47;;;;;;;9.45;8.13;;;16.70;76.20;;;;;;5031803;28;20033;-55
2023/09/11 03:42:13;;;;;;;10.38;8.60;;;16.70;76.20;;;;;;5031684;28;20048;-56
2023/09/11 03:44:39;;;;;;;9.55;7.95;;;16.70;76.40;;;;;;5030304;28;20086;-56
2023/09/11 03:47:04;;;;;;;8.95;7.72;;;16.70;76.50;;;;;;5030373;28;20029;-55
2023/09/11 03:49:30;;;;;;;10.23;8.02;;;16.70;76.60;;;;;;5030621;28;20112;-56
2023/09/11 03:51:57;;;;;;;9.73;8.27;;;16.70;76.80;;;;;;5030430;28;20537;-53
2023/09/11 03:54:22;;;;;;;12.25;8.60;;;16.80;76.90;;;;;;5030096;28;20041;-55
2023/09/11 03:56:48;;;;;;;9.38;8.38;;;16.80;77.00;;;;;;5030203;28;20483;-56
2023/09/11 03:59:13;;;;;;;11.40;8.85;;;16.80;77.00;;;;;;5030396;28;20030;-56
2023/09/11 04:01:39;;;;;;;9.93;8.23;;;16.80;77.20;;;;;;5030516;28;20029;-53
2023/09/11 04:04:05;;;;;;;11.02;9.00;;;16.90;77.20;;;;;;5030437;28;20072;-56
2023/09/11 04:06:31;;;;;;;10.50;8.55;;;16.90;77.20;;;;;;5031309;28;20100;-55
2023/09/11 04:08:57;;;;;;;10.55;8.45;;;16.90;77.30;;;;;;5035622;28;20108;-56
2023/09/11 04:11:23;;;;;;;13.65;8.60;;;16.90;77.30;;;;;;5035356;28;20029;-55
2023/09/11 04:13:49;;;;;;;13.10;9.20;;;17.00;77.50;;;;;;5035443;28;20030;-57
2023/09/11 04:16:15;;;;;;;11.13;8.95;;;17.00;77.60;;;;;;5035461;28;20108;-56
2023/09/11 04:18:44;;;;;;;11.35;8.88;;;17.00;77.80;;;;;;5035665;28;20025;-56
2023/09/11 04:21:10;;;;;;;10.98;9.32;;;17.10;77.90;;;;;;5035325;28;20033;-57
2023/09/11 04:23:35;;;;;;;10.98;8.95;;;17.10;77.90;;;;;;5035661;28;20034;-56
2023/09/11 04:26:01;;;;;;;12.25;9.85;;;17.20;78.30;;;;;;5035176;28;20539;-56
2023/09/11 04:28:27;;;;;;;13.70;10.40;;;17.20;78.60;;;;;;5013848;28;20485;-56
2023/09/11 04:30:52;;;;;;;14.20;9.88;;;17.20;78.90;;;;;;5014687;28;20101;-55
2023/09/11 04:33:18;;;;;;;12.07;10.02;;;17.20;79.40;;;;;;5014885;28;20030;-57
2023/09/11 04:35:44;;;;;;;12.73;9.60;;;17.30;79.80;;;;;;5015301;28;20449;-57
2023/09/11 04:38:10;;;;;;;11.85;9.70;;;17.40;80.00;;;;;;5015139;28;20339;-58
2023/09/11 04:40:36;;;;;;;12.70;9.45;;;17.50;80.20;;;;;;5015105;28;20045;-58
2023/09/11 04:43:02;;;;;;;11.50;10.07;;;17.50;80.50;;;;;;5015505;28;20033;-56
2023/09/11 04:45:28;;;;;;;12.70;10.20;;;17.50;80.70;;;;;;5015092;28;20030;-56
2023/09/11 04:47:53;;;;;;;11.55;10.18;;;17.60;80.70;;;;;;5014839;28;20062;-57
2023/09/11 04:50:19;;;;;;;13.00;9.73;;;17.60;80.90;;;;;;5015008;28;20540;-58
2023/09/11 04:52:44;;;;;;;11.98;10.18;;;17.70;81.20;;;;;;5014833;28;20073;-58
2023/09/11 04:55:11;;;;;;;12.52;9.88;;;17.70;81.40;;;;;;5014244;28;20153;-56
2023/09/11 04:57:40;;;;;;;13.43;10.07;;;17.80;81.70;;;;;;5014410;28;20025;-57
2023/09/11 05:00:10;;;;;;;10.30;9.15;;;17.90;82.00;;;;;;5013836;28;20536;-58
2023/09/11 05:02:36;;;;;;;11.63;10.07;;;18.00;81.90;;;;;;5014571;28;20441;-58
2023/09/11 05:05:05;;;;;;;10.80;9.07;;;18.10;81.90;;;;;;5014867;28;20128;-58
2023/09/11 05:07:31;;;;;;;11.32;9.13;;;18.20;82.00;;;;;;5014730;28;20022;-58
2023/09/11 05:09:59;;;;;;;10.50;9.40;;;18.20;81.90;;;;;;5014561;28;20077;-57
2023/09/11 05:12:24;;;;;;;10.68;9.57;;;18.30;81.70;;;;;;5014733;28;20049;-57
2023/09/11 05:14:50;;;;;;;10.82;8.68;;;18.50;81.30;;;;;;5014145;28;20026;-57
2023/09/11 05:17:17;;;;;;;10.90;9.32;;;18.50;80.60;;;;;;5012897;28;20037;-57
2023/09/11 05:19:43;;;;;;;9.63;8.63;;;18.60;80.00;;;;;;5014257;28;20036;-57
2023/09/11 05:22:09;;;;;;;10.10;8.60;;;18.60;79.60;;;;;;5013889;28;20034;-56
2023/09/11 05:24:34;;;;;;;10.20;8.27;;;18.60;79.40;;;;;;5013126;28;20022;-57
2023/09/11 05:27:00;;;;;;;10.20;8.40;;;18.60;79.40;;;;;;5012430;28;20065;-57
2023/09/11 05:29:26;;;;;;;10.93;8.48;;;18.60;79.20;;;;;;5013334;28;20037;-57
2023/09/11 05:31:51;;;;;;;11.00;8.73;;;18.60;79.10;;;;;;5013866;28;20527;-56
2023/09/11 05:34:17;;;;;;;10.38;7.97;;;18.60;79.10;;;;;;5013509;28;20018;-55
2023/09/11 05:36:43;;;;;;;11.23;7.80;;;18.60;79.10;;;;;;5014382;28;20153;-58
2023/09/11 05:39:08;;;;;;;10.45;8.48;;;18.70;78.90;;;;;;5014216;28;20026;-58
2023/09/11 05:41:35;;;;;;;10.90;8.43;;;18.70;78.70;;;;;;5013785;28;20029;-57
2023/09/11 05:44:01;;;;;;;13.50;8.77;;;18.80;78.40;;;;;;5014079;28;20393;-57
2023/09/11 05:46:27;;;;;;;9.48;8.15;;;18.80;78.20;;;;;;5012610;28;20036;-58
2023/09/11 05:48:52;;;;;;;9.15;8.07;;;18.90;77.90;;;;;;5012802;28;20025;-56
2023/09/11 05:51:18;;;;;;;8.63;7.43;;;18.90;77.40;;;;;;5013548;28;20072;-57
2023/09/11 05:53:44;;;;;;;8.88;7.85;;;18.90;77.00;;;;;;5013270;28;20060;-58
2023/09/11 05:56:10;;;;;;;10.30;7.63;;;18.90;77.00;;;;;;5013785;28;20057;-56
2023/09/11 05:58:35;;;;;;;8.65;7.18;;;18.90;76.80;;;;;;5012912;28;20034;-56
2023/09/11 06:01:01;;;;;;;10.73;7.53;;;18.90;76.30;;;;;;5013481;28;20036;-57
2023/09/11 06:03:26;;;;;;;7.47;6.57;;;19.00;76.00;;;;;;5013637;28;20026;-58
2023/09/11 06:05:52;;;;;;;8.05;6.78;;;19.00;75.70;;;;;;5013630;28;20478;-57
2023/09/11 06:08:18;;;;;;;7.88;7.07;;;19.00;75.60;;;;;;5013411;28;20038;-58
2023/09/11 06:10:43;;;;;;;7.28;6.50;;;19.10;75.30;;;;;;5013512;28;20110;-58
2023/09/11 06:13:09;;;;;;;8.75;6.78;;;19.10;74.80;;;;;;5013520;28;20032;-57
2023/09/11 06:15:36;;;;;;;8.45;6.68;;;19.20;74.70;;;;;;5013520;28;20026;-57
2023/09/11 06:18:03;;;;;;;8.30;7.15;;;19.20;74.60;;;;;;5012441;28;20494;-57
2023/09/11 06:20:29;;;;;;;9.23;7.07;;;19.20;74.70;;;;;;5012797;28;20018;-56
2023/09/11 06:22:55;;;;;;;7.50;6.70;;;19.30;74.40;;;;;;5012111;28;20386;-58
2023/09/11 06:25:21;;;;;;;8.70;7.05;;;19.30;74.00;;;;;;5013363;28;20436;-57
2023/09/11 06:27:47;;;;;;;8.30;6.50;;;19.40;73.70;;;;;;5012792;28;20161;-57
2023/09/11 06:30:13;;;;;;;8.70;6.32;;;19.40;73.80;;;;;;5012094;28;20101;-57
2023/09/11 06:32:38;;;;;;;8.43;6.65;;;19.50;72.60;;;;;;5012950;28;20116;-58
2023/09/11 06:35:05;;;;;;;7.53;6.38;;;19.50;72.00;;;;;;5012385;28;20029;-57
2023/09/11 06:37:30;;;;;;;7.35;6.45;;;19.60;71.90;;;;;;5013084;28;20014;-58
2023/09/11 06:39:56;;;;;;;7.25;6.35;;;19.60;71.40;;;;;;5012585;28;20088;-56
2023/09/11 06:42:24;;;;;;;6.50;5.60;;;19.60;71.40;;;;;;5012729;28;20041;-58
2023/09/11 06:44:51;;;;;;;7.22;5.78;;;19.70;70.90;;;;;;5012763;28;20026;-58
2023/09/11 06:47:17;;;;;;;6.68;5.97;;;19.70;70.60;;;;;;5012466;28;20390;-58
2023/09/11 06:49:42;;;;;;;8.15;6.38;;;19.80;70.50;;;;;;5012707;28;20022;-56
2023/09/11 06:52:08;;;;;;;8.90;6.20;;;19.80;70.40;;;;;;5012692;28;20057;-58
2023/09/11 06:54:34;;;;;;;7.18;6.15;;;19.90;70.10;;;;;;5012600;28;20409;-57
2023/09/11 06:56:59;;;;;;;8.25;6.13;;;19.90;70.00;;;;;;5012687;28;20450;-58
2023/09/11 06:59:26;;;;;;;7.00;6.30;;;19.90;69.70;;;;;;5012705;28;20057;-53
2023/09/11 07:01:52;;;;;;;7.45;6.18;;;19.90;69.70;;;;;;5012954;28;20030;-58
2023/09/11 07:04:17;;;;;;;7.95;5.70;;;20.00;69.50;;;;;;5012751;28;20041;-58
2023/09/11 07:06:43;;;;;;;6.85;5.45;;;20.00;69.00;;;;;;5012609;28;20061;-58
2023/09/11 07:09:09;;;;;;;8.35;5.97;;;20.10;68.70;;;;;;5012752;28;20462;-58
2023/09/11 07:11:35;;;;;;;8.57;6.75;;;20.10;68.60;;;;;;5012579;28;20073;-58
2023/09/11 07:14:01;;;;;;;6.25;5.65;;;20.10;68.20;;;;;;5012000;28;20057;-57
2023/09/11 07:16:26;;;;;;;8.52;6.10;;;20.20;68.20;;;;;;5012392;28;20022;-58
2023/09/11 07:18:52;;;;;;;6.78;5.68;;;20.10;68.20;;;;;;5012589;28;20029;-58
2023/09/11 07:21:18;;;;;;;6.15;5.45;;;20.20;68.40;;;;;;5012308;28;20104;-56
2023/09/11 07:23:43;;;;;;;7.70;5.63;;;20.20;68.20;;;;;;5012707;28;20045;-58
2023/09/11 07:26:09;;;;;;;6.95;5.43;;;20.20;68.20;;;;;;5012426;28;20501;-59
2023/09/11 07:29:04;;;;;;;8.52;6.05;;;20.20;67.80;;;;;;5011837;28;20052;-58
2023/09/11 07:31:31;;;;;;;7.03;6.20;;;20.30;67.60;;;;;;5012243;28;20407;-58
2023/09/11 07:33:57;;;;;;;7.50;5.20;;;20.30;67.90;;;;;;5012605;28;20034;-57
2023/09/11 07:36:23;;;;;;;9.02;5.63;;;20.30;68.00;;;;;;5012340;28;20026;-58
2023/09/11 07:38:49;;;;;;;6.22;5.63;;;20.30;67.80;;;;;;5012331;28;20039;-58
2023/09/11 07:41:17;;;;;;;6.60;5.90;;;20.30;67.50;;;;;;5011889;28;20390;-58
2023/09/11 07:43:49;;;;;;;8.43;6.10;;;20.30;67.50;;;;;;5012152;28;20026;-59
2023/09/11 07:46:19;;;;;;;7.38;6.30;;;20.40;67.80;;;;;;5012520;28;20474;-58
2023/09/11 07:48:45;;;;;;;6.47;5.45;;;20.40;67.70;;;;;;5012382;28;20025;-59
2023/09/11 07:51:12;;;;;;;9.20;5.93;;;20.40;67.70;;;;;;5012358;28;20045;-56
2023/09/11 07:53:38;;;;;;;9.52;6.22;;;20.40;67.80;;;;;;5013232;28;20393;-58
2023/09/11 07:56:08;;;;;;;6.53;5.93;;;20.40;67.80;;;;;;5031644;28;20491;-58
2023/09/11 07:58:37;;;;;;;7.25;6.32;;;20.40;67.80;;;;;;5031413;28;20939;-59
2023/09/11 08:01:04;;;;;;;6.68;5.97;;;20.40;67.80;;;;;;5015084;28;20032;-58
2023/09/11 08:03:32;;;;;;;7.03;6.32;;;20.40;67.60;;;;;;5011712;28;20026;-57
2023/09/11 08:05:59;;;;;;;6.63;5.93;;;20.40;67.70;;;;;;5011583;28;20389;-58
2023/09/11 08:08:26;;;;;;;9.07;6.40;;;20.40;67.50;;;;;;5011643;28;20030;-59
2023/09/11 08:10:51;;;;;;;7.45;6.43;;;20.40;67.70;;;;;;4996278;28;20478;-57
2023/09/11 08:13:17;;;;;;;8.05;6.57;;;20.40;67.70;;;;;;5011194;28;20045;-58
2023/09/11 08:15:42;;;;;;;8.18;6.45;;;20.50;67.80;;;;;;4992937;28;20033;-58
2023/09/11 08:18:09;;;;;;;8.00;7.18;;;20.50;67.80;;;;;;5010346;28;20030;-55
2023/09/11 08:20:35;;;;;;;7.65;6.65;;;20.50;68.00;;;;;;5012408;28;20053;-58
2023/09/11 08:23:01;;;;;;;7.60;6.60;;;20.60;68.20;;;;;;5002251;28;20474;-57
2023/09/11 08:25:27;;;;;;;8.02;7.10;;;20.60;68.30;;;;;;5010883;28;20026;-58
2023/09/11 08:27:53;;;;;;;8.52;7.00;;;20.60;68.40;;;;;;5011184;28;20026;-58
2023/09/11 08:30:19;;;;;;;7.65;6.85;;;20.70;69.10;;;;;;5005751;28;20052;-55
2023/09/11 08:32:45;;;;;;;8.40;7.15;;;20.70;68.60;;;;;;4996452;28;20043;-57
2023/09/11 08:35:10;;;;;;;7.80;6.82;;;20.70;68.40;;;;;;5010548;28;20097;-57
2023/09/11 08:37:36;;;;;;;8.02;6.97;;;20.70;68.00;;;;;;5007332;28;20393;-57
2023/09/11 08:40:02;;;;;;;7.88;7.07;;;20.80;68.00;;;;;;5007632;28;20034;-58
2023/09/11 08:42:27;;;;;;;7.55;6.65;;;20.80;68.10;;;;;;5005950;28;20054;-58
2023/09/11 08:44:53;;;;;;;8.07;7.22;;;20.80;68.10;;;;;;4990839;28;20026;-58
2023/09/11 08:47:26;;;;;;;7.50;6.38;;;20.80;68.20;;;;;;5007008;28;20038;-57
2023/09/11 08:49:55;;;;;;;7.07;6.38;;;20.80;69.00;;;;;;5011483;28;20022;-58
2023/09/11 08:52:22;;;;;;;7.68;6.25;;;20.90;68.20;;;;;;5013109;28;20046;-58
2023/09/11 08:54:52;;;;;;;6.68;5.97;;;20.90;67.70;;;;;;5023368;28;20124;-57
2023/09/11 08:57:21;;;;;;;7.72;6.57;;;20.90;67.60;;;;;;5031596;28;20025;-57
2023/09/11 08:59:50;;;;;;;7.38;6.22;;;20.90;67.70;;;;;;5031799;28;20076;-55
2023/09/11 09:02:17;;;;;;;12.93;6.80;;;20.90;67.50;;;;;;5032434;28;20029;-58
2023/09/11 09:04:44;;;;;;;8.48;6.65;;;20.90;67.20;;;;;;5032061;28;20021;-58
2023/09/11 09:07:10;;;;;;;6.70;5.60;;;20.90;67.10;;;;;;5025800;28;20494;-58
2023/09/11 09:09:36;;;;;;;6.00;4.85;;;20.90;66.50;;;;;;5011379;28;20068;-56
2023/09/11 09:12:04;;;;;;;7.82;5.82;;;20.90;66.00;;;;;;5011019;28;20044;-58
2023/09/11 09:14:31;;;;;;;6.82;5.15;;;20.90;65.90;;;;;;5012139;28;20049;-55
2023/09/11 09:16:57;;;;;;;8.75;5.63;;;20.90;66.60;;;;;;5012021;28;20383;-57
2023/09/11 09:19:22;;;;;;;5.63;4.75;;;20.90;65.40;;;;;;5011821;28;20044;-58
2023/09/11 09:22:04;;;;;;;6.13;4.63;;;20.90;65.10;;;;;;5011820;28;20045;-58
2023/09/11 09:24:31;;;;;;;6.10;5.50;;;20.90;64.60;;;;;;5011685;28;20041;-57
2023/09/11 09:26:58;;;;;;;5.95;5.13;;;20.90;65.00;;;;;;5009861;28;20046;-56
2023/09/11 09:29:24;;;;;;;5.80;4.75;;;20.90;64.70;;;;;;5005659;28;20029;-57
2023/09/11 09:31:50;;;;;;;6.75;4.63;;;20.80;63.60;;;;;;5006013;28;20689;-59
2023/09/11 09:34:16;;;;;;;5.10;4.60;;;20.80;63.20;;;;;;5010755;28;20034;-58
2023/09/11 09:36:52;;;;;;;5.75;4.68;;;20.80;63.00;;;;;;5011909;28;20481;-57
2023/09/11 09:39:18;;;;;;;6.82;4.65;;;20.80;62.80;;;;;;5011422;28;20033;-58
2023/09/11 09:41:58;;;;;;;5.40;4.55;;;20.80;63.10;;;;;;5011968;28;20044;-57
2023/09/11 09:44:32;;;;;;;5.80;4.85;;;20.80;62.70;;;;;;5011815;28;20045;-57
2023/09/11 09:47:07;;;;;;;6.35;4.47;;;20.80;62.50;;;;;;4998880;28;20025;-58
2023/09/11 09:49:55;;;;;;;7.45;4.90;;;20.80;62.30;;;;;;5011457;28;20038;-58
2023/09/11 09:52:24;;;;;;;5.78;4.68;;;20.80;62.30;;;;;;5011998;28;20028;-57
2023/09/11 09:54:52;;;;;;;5.28;4.78;;;20.80;62.50;;;;;;5027769;28;20080;-59
2023/09/11 09:57:24;;;;;;;5.07;4.57;;;20.80;62.50;;;;;;5015741;28;20125;-56
2023/09/11 09:59:54;;;;;;;5.45;4.60;;;20.80;62.20;;;;;;5015863;28;20496;-55
2023/09/11 10:02:31;;;;;;;5.93;4.70;;;20.80;62.20;;;;;;5011425;28;20026;-57
2023/09/11 10:05:02;;;;;;;5.47;4.60;;;20.70;62.70;;;;;;5007004;28;20042;-54
2023/09/11 10:07:38;;;;;;;;;;;20.70;62.00;;;;;;5010356;28;20394;-58
2023/09/11 10:10:24;;;;;;;5.75;5.13;;;20.60;62.10;;;;;;5008470;28;19922;-59
2023/09/11 10:13:00;;;;;;;5.10;4.60;;;20.50;61.90;;;;;;5011208;28;20052;-57
2023/09/11 10:15:29;;;;;;;7.10;4.63;;;20.50;62.00;;;;;;5010792;28;20025;-58
2023/09/11 10:17:56;;;;;;;5.85;4.63;;;20.50;62.10;;;;;;5011304;28;20721;-57
2023/09/11 10:20:23;;;;;;;4.97;4.47;;;20.40;62.30;;;;;;5010079;28;20454;-57
2023/09/11 10:22:52;;;;;;;5.70;4.88;;;20.40;62.30;;;;;;5011117;28;20030;-58
2023/09/11 10:25:19;;;;;;;5.70;4.72;;;20.40;62.20;;;;;;5010274;28;20544;-58
2023/09/11 10:27:48;;;;;;;5.85;4.55;;;20.40;62.10;;;;;;5005079;28;20030;-57
2023/09/11 10:30:21;;;;;;;6.07;4.80;;;20.40;62.30;;;;;;5010340;28;20433;-59
2023/09/11 10:33:11;;;;;;;5.95;4.88;;;20.40;62.40;;;;;;5011057;28;20033;-58
2023/09/11 10:35:40;;;;;;;5.35;4.75;;;20.40;62.20;;;;;;5010252;28;20076;-58
2023/09/11 10:38:08;;;;;;;5.30;4.45;;;20.40;62.10;;;;;;5009712;28;20029;-58
2023/09/11 10:40:35;;;;;;;5.00;4.13;;;20.40;62.30;;;;;;5010530;28;20025;-57
2023/09/11 10:43:01;;;;;;;5.15;4.65;;;20.50;62.30;;;;;;5010954;28;20026;-57
2023/09/11 10:45:34;;;;;;;5.50;4.53;;;20.50;62.20;;;;;;5011116;28;20034;-56
2023/09/11 10:48:01;;;;;;;7.32;4.43;;;20.50;61.90;;;;;;5008746;28;20089;-57
2023/09/11 10:50:37;;;;;;;4.65;4.15;;;20.50;62.00;;;;;;5007852;28;20029;-57
2023/09/11 10:53:05;;;;;;;4.70;4.20;;;20.60;62.00;;;;;;5004206;28;20026;-57
2023/09/11 10:55:32;;;;;;;4.72;4.22;;;20.60;62.00;;;;;;5008965;28;20105;-58
2023/09/11 10:57:58;;;;;;;5.95;4.13;;;20.50;62.40;;;;;;5010070;28;20033;-57
2023/09/11 11:00:26;;;;;;;5.28;4.70;;;20.50;62.00;;;;;;5006185;28;20567;-57
2023/09/11 11:02:52;;;;;;;4.85;4.32;;;20.60;62.10;;;;;;5009667;28;20030;-59
2023/09/11 11:05:19;;;;;;;5.82;4.50;;;20.50;62.10;;;;;;5010051;28;20045;-55
2023/09/11 11:07:50;;;;;;;4.95;4.40;;;20.60;62.10;;;;;;5009489;28;20466;-58
2023/09/11 11:10:17;;;;;;;5.25;4.50;;;20.60;62.10;;;;;;5010415;28;20042;-57
2023/09/11 11:12:44;;;;;;;5.15;4.38;;;20.60;62.20;;;;;;5009734;28;20477;-58
2023/09/11 11:15:28;;;;;;;6.15;4.53;;;20.50;62.20;;;;;;5007176;28;20026;-56
2023/09/11 11:18:08;;;;;;;5.03;4.53;;;20.50;62.30;;;;;;5009972;28;20030;-57
2023/09/11 11:20:35;;;;;;;5.28;4.38;;;20.50;62.50;;;;;;5009509;28;20029;-58
2023/09/11 11:23:12;;;;;;;5.78;4.57;;;20.50;62.50;;;;;;5006540;28;20033;-58
2023/09/11 11:25:41;;;;;;;4.80;4.10;;;20.60;62.50;;;;;;5008839;28;20052;-58
2023/09/11 11:28:17;;;;;;;4.90;4.40;;;20.50;62.20;;;;;;5009331;28;20026;-58
2023/09/11 11:30:44;;;;;;;5.68;4.78;;;20.50;61.90;;;;;;5008814;28;20096;-58
2023/09/11 11:33:15;;;;;;;5.78;4.07;;;20.50;62.20;;;;;;5009624;28;20057;-56
2023/09/11 11:35:46;;;;;;;5.55;4.18;;;20.50;62.20;;;;;;5009073;28;20112;-56
2023/09/11 11:38:17;;;;;;;5.40;4.38;;;20.50;62.10;;;;;;5014982;28;20026;-56
2023/09/11 11:40:43;;;;;;;6.33;4.97;;;20.50;62.30;;;;;;5008956;28;20030;-58
2023/09/11 11:43:10;;;;;;;5.13;4.40;;;20.50;62.40;;;;;;5008623;28;20041;-55
2023/09/11 11:45:44;;;;;;;6.00;4.60;;;20.50;62.50;;;;;;5009249;28;20026;-57
2023/09/11 11:48:11;;;;;;;4.78;4.18;;;20.50;62.60;;;;;;5007555;28;20081;-56
2023/09/11 11:50:41;;;;;;;5.88;5.00;;;20.40;62.50;;;;;;5008620;28;20117;-58
2023/09/11 11:53:07;;;;;;;5.22;4.50;;;20.40;62.30;;;;;;5008311;28;20079;-56
2023/09/11 11:55:33;;;;;;;5.82;5.15;;;20.50;62.60;;;;;;5006276;28;20411;-58
2023/09/11 11:57:58;;;;;;;4.82;4.32;;;20.40;62.60;;;;;;5009071;28;20113;-58
2023/09/11 12:00:24;;;;;;;5.20;4.70;;;20.40;62.50;;;;;;5008221;28;20037;-56
2023/09/11 12:02:50;;;;;;;4.68;4.25;;;20.40;62.70;;;;;;5008125;28;20434;-55
2023/09/11 12:05:15;;;;;;;7.90;5.88;;;20.40;62.40;;;;;;5007987;28;20030;-57
2023/09/11 12:07:41;;;;;;;5.22;4.72;;;20.40;62.50;;;;;;5008219;28;20034;-57
2023/09/11 12:10:11;;;;;;;6.03;4.72;;;20.40;62.50;;;;;;5007767;28;20398;-57
2023/09/11 12:12:41;;;;;;;6.45;5.00;;;20.40;62.60;;;;;;5008232;28;20041;-58
2023/09/11 12:15:07;;;;;;;5.40;4.60;;;20.40;62.80;;;;;;5008844;28;20030;-58
2023/09/11 12:17:33;;;;;;;6.57;4.70;;;20.40;62.70;;;;;;5009168;28;20037;-57
2023/09/11 12:20:16;;;;;;;5.78;4.90;;;20.40;62.70;;;;;;5008199;28;20385;-58
2023/09/11 12:22:43;;;;;;;6.00;4.80;;;20.40;62.90;;;;;;5008922;28;20084;-57
2023/09/11 12:25:10;;;;;;;7.10;4.82;;;20.30;63.00;;;;;;5008818;28;20536;-57
2023/09/11 12:27:36;;;;;;;6.13;5.05;;;20.30;63.00;;;;;;5009525;28;20053;-57
2023/09/11 12:30:06;;;;;;;7.55;4.90;;;20.30;62.70;;;;;;4994223;28;20514;-55
2023/09/11 12:32:33;;;;;;;4.75;4.28;;;20.30;62.70;;;;;;5011335;28;20091;-57
2023/09/11 12:34:59;;;;;;;5.88;4.65;;;20.30;62.70;;;;;;5012224;28;20042;-58
2023/09/11 12:37:25;;;;;;;6.07;4.65;;;20.30;62.70;;;;;;5012485;28;20034;-54
2023/09/11 12:39:51;;;;;;;5.35;4.57;;;20.30;62.70;;;;;;5009095;28;20553;-57
2023/09/11 12:42:17;;;;;;;5.07;4.45;;;20.30;62.80;;;;;;5010334;28;20049;-58
2023/09/11 12:44:43;;;;;;;6.45;4.95;;;20.40;63.00;;;;;;5012231;28;20040;-58
2023/09/11 12:47:09;;;;;;;6.20;4.50;;;20.30;63.10;;;;;;5011000;28;20057;-57